createdAt,value
2022-12-16T00:01:36.581Z,86.12
2022-12-16T00:04:05.965Z,86.46
2022-12-16T00:06:35.035Z,86.62
2022-12-16T00:09:03.083Z,86.58
2022-12-16T00:11:32.342Z,86.83
2022-12-16T00:14:00.473Z,86.55
2022-12-16T00:16:28.715Z,86.63
2022-12-16T00:18:56.630Z,86.08
2022-12-16T00:21:29.764Z,86.60
2022-12-16T00:23:58.043Z,86.64
2022-12-16T00:26:26.180Z,86.76
2022-12-16T00:28:54.024Z,86.64
2022-12-16T00:31:22.871Z,86.43
2022-12-16T00:33:52.877Z,86.57
2022-12-16T00:36:20.771Z,86.02
2022-12-16T00:38:51.891Z,86.16
2022-12-16T00:41:19.968Z,85.86
2022-12-16T00:43:48.033Z,86.38
2022-12-16T00:46:16.105Z,86.34
2022-12-16T00:48:44.019Z,85.57
2022-12-16T00:51:11.838Z,85.32
2022-12-16T00:53:39.702Z,85.34
2022-12-16T00:56:11.301Z,85.29
2022-12-16T00:58:39.335Z,85.23
2022-12-16T01:01:07.400Z,85.14
2022-12-16T01:03:36.020Z,85.52
2022-12-16T01:06:09.342Z,84.93
2022-12-16T01:08:37.118Z,85.52
2022-12-16T01:11:04.966Z,84.95
2022-12-16T01:13:35.051Z,85.09
2022-12-16T01:16:03.836Z,84.72
2022-12-16T01:18:31.855Z,85.04
2022-12-16T01:21:04.098Z,84.50
2022-12-16T01:23:32.280Z,84.67
2022-12-16T01:26:02.204Z,85.11
2022-12-16T01:28:31.120Z,84.80
2022-12-16T01:31:02.507Z,84.86
2022-12-16T01:33:31.219Z,84.53
2022-12-16T01:36:00.880Z,85.03
2022-12-16T01:38:28.834Z,85.54
2022-12-16T01:40:56.762Z,85.34
2022-12-16T01:43:28.142Z,86.38
2022-12-16T01:46:03.046Z,86.29
2022-12-16T01:48:41.504Z,85.85
2022-12-16T01:51:12.971Z,85.96
2022-12-16T01:53:44.448Z,86.39
2022-12-16T01:56:16.476Z,85.97
2022-12-16T01:58:46.276Z,86.64
2022-12-16T02:01:17.658Z,86.28
2022-12-16T02:03:45.900Z,86.00
2022-12-16T02:06:13.687Z,86.62
2022-12-16T02:08:41.516Z,85.98
2022-12-16T02:11:22.958Z,86.65
2022-12-16T02:14:05.700Z,86.33
2022-12-16T02:16:42.779Z,86.67
2022-12-16T02:19:28.239Z,86.43
2022-12-16T02:22:09.215Z,86.89
2022-12-16T02:25:12.726Z,87.11
2022-12-16T02:27:59.605Z,86.93
2022-12-16T02:31:04.230Z,86.90
2022-12-16T02:34:05.082Z,87.48
2022-12-16T02:36:45.134Z,87.44
2022-12-16T02:39:16.314Z,87.96
2022-12-16T02:41:50.091Z,88.30
2022-12-16T02:44:18.739Z,88.68
2022-12-16T02:46:56.200Z,88.68
2022-12-16T02:49:57.788Z,89.23
2022-12-16T02:52:29.705Z,89.32
2022-12-16T02:55:00.994Z,89.42
2022-12-16T02:58:00.902Z,89.69
2022-12-16T03:00:34.375Z,90.10
2022-12-16T03:03:09.913Z,90.04
2022-12-16T03:05:41.427Z,90.06
2022-12-16T03:08:14.970Z,90.19
2022-12-16T03:10:47.296Z,90.47
2022-12-16T03:13:18.356Z,89.92
2022-12-16T03:15:49.151Z,90.40
2022-12-16T03:18:20.867Z,90.53
2022-12-16T03:20:53.302Z,90.49
2022-12-16T03:23:27.802Z,90.42
2022-12-16T03:26:00.870Z,90.69
2022-12-16T03:28:39.784Z,89.99
2022-12-16T03:31:15.349Z,90.85
2022-12-16T03:33:50.634Z,90.63
2022-12-16T03:36:23.140Z,90.00
2022-12-16T03:38:52.523Z,90.40
2022-12-16T03:41:23.201Z,90.18
2022-12-16T03:43:52.508Z,90.13
2022-12-16T03:46:20.501Z,89.99
2022-12-16T03:48:51.772Z,90.25
2022-12-16T03:51:20.709Z,90.25
2022-12-16T03:53:48.612Z,90.73
2022-12-16T03:56:16.896Z,90.36
2022-12-16T03:58:47.019Z,90.37
2022-12-16T04:01:16.050Z,90.73
2022-12-16T04:03:43.939Z,90.61
2022-12-16T04:06:13.260Z,90.26
2022-12-16T04:08:41.099Z,90.27
2022-12-16T04:11:38.529Z,90.49
2022-12-16T04:14:24.026Z,90.96
2022-12-16T04:17:09.607Z,90.94
2022-12-16T04:19:56.894Z,91.11
2022-12-16T04:22:46.893Z,90.75
2022-12-16T04:25:17.752Z,90.72
2022-12-16T04:27:46.824Z,90.56
2022-12-16T04:30:21.835Z,90.73
2022-12-16T04:33:22.759Z,90.83
2022-12-16T04:36:08.365Z,90.62
2022-12-16T04:38:54.832Z,91.10
2022-12-16T04:41:40.111Z,90.57
2022-12-16T04:44:25.959Z,90.71
2022-12-16T04:47:22.762Z,90.64
2022-12-16T04:50:07.970Z,90.55
2022-12-16T04:52:53.306Z,90.61
2022-12-16T04:55:39.928Z,91.11
2022-12-16T04:58:25.195Z,90.88
2022-12-16T05:01:10.627Z,90.94
2022-12-16T05:03:56.028Z,91.12
2022-12-16T05:06:41.419Z,91.04
2022-12-16T05:09:26.897Z,91.07
2022-12-16T05:12:13.376Z,91.48
2022-12-16T05:14:59.134Z,91.72
2022-12-16T05:17:44.418Z,91.56
2022-12-16T05:20:29.691Z,91.89
2022-12-16T05:23:15.686Z,91.52
2022-12-16T05:26:01.365Z,91.34
2022-12-16T05:28:47.936Z,91.45
2022-12-16T05:31:33.450Z,92.13
2022-12-16T05:34:18.840Z,91.41
2022-12-16T05:37:04.335Z,91.88
2022-12-16T05:39:49.681Z,91.90
2022-12-16T05:42:35.126Z,91.46
2022-12-16T05:45:22.251Z,91.61
2022-12-16T05:48:07.886Z,91.82
2022-12-16T05:50:53.275Z,92.37
2022-12-16T05:53:41.307Z,91.62
2022-12-16T05:56:26.370Z,91.55
2022-12-16T05:59:11.678Z,92.14
2022-12-16T06:01:58.177Z,91.88
2022-12-16T06:04:43.707Z,92.03
2022-12-16T06:07:29.039Z,92.12
2022-12-16T06:10:14.354Z,91.91
2022-12-16T06:12:59.685Z,91.82
2022-12-16T06:15:45.069Z,91.24
2022-12-16T06:18:31.685Z,91.48
2022-12-16T06:21:16.923Z,91.13
2022-12-16T06:24:02.082Z,91.53
2022-12-16T06:26:47.376Z,91.00
2022-12-16T06:29:32.441Z,91.76
2022-12-16T06:32:18.170Z,91.59
2022-12-16T06:35:05.080Z,91.11
2022-12-16T06:37:50.312Z,91.80
2022-12-16T06:40:35.748Z,91.41
2022-12-16T06:43:21.111Z,92.01
2022-12-16T06:46:06.928Z,92.32
2022-12-16T06:48:52.384Z,92.51
2022-12-16T06:51:38.982Z,92.65
2022-12-16T06:54:24.490Z,93.02
2022-12-16T06:57:09.628Z,92.55
2022-12-16T06:59:54.879Z,92.41
2022-12-16T07:02:40.267Z,92.44
2022-12-16T07:05:26.308Z,92.41
2022-12-16T07:08:13.067Z,92.77
2022-12-16T07:11:09.203Z,93.32
2022-12-16T07:14:01.223Z,93.23
2022-12-16T07:16:46.864Z,93.36
2022-12-16T07:19:32.127Z,93.80
2022-12-16T07:22:17.366Z,93.35
2022-12-16T07:25:03.970Z,93.43
2022-12-16T07:27:49.449Z,93.44
2022-12-16T07:30:34.819Z,93.22
2022-12-16T07:33:20.102Z,93.25
2022-12-16T07:36:05.325Z,93.17
2022-12-16T07:38:50.542Z,93.26
2022-12-16T07:41:37.203Z,93.57
2022-12-16T07:44:23.059Z,93.18
2022-12-16T07:47:08.445Z,93.38
2022-12-16T07:50:05.141Z,93.50
2022-12-16T07:52:50.620Z,93.23
2022-12-16T07:55:36.427Z,93.17
2022-12-16T07:58:23.041Z,93.63
2022-12-16T08:01:09.819Z,93.32
2022-12-16T08:03:54.780Z,93.54
2022-12-16T08:06:44.128Z,93.32
2022-12-16T08:09:32.958Z,93.29
2022-12-16T08:12:18.388Z,93.63
2022-12-16T08:15:16.603Z,93.21
2022-12-16T08:18:07.877Z,93.08
2022-12-16T08:21:00.619Z,93.28
2022-12-16T08:23:45.960Z,93.54
2022-12-16T08:26:31.857Z,93.15
2022-12-16T08:29:43.234Z,92.96
2022-12-16T08:32:24.393Z,93.07
2022-12-16T08:35:10.055Z,92.91
2022-12-16T08:37:55.296Z,93.34
2022-12-16T08:40:40.747Z,93.08
2022-12-16T08:43:26.019Z,93.22
2022-12-16T08:46:14.040Z,93.37
2022-12-16T08:49:01.149Z,92.97
2022-12-16T08:51:46.910Z,92.88
2022-12-16T08:54:32.753Z,92.90
2022-12-16T08:57:18.344Z,93.15
2022-12-16T09:00:04.018Z,93.02
2022-12-16T09:03:04.428Z,92.91
2022-12-16T09:05:51.481Z,92.80
2022-12-16T09:08:37.318Z,92.66
2022-12-16T09:11:26.852Z,92.25
2022-12-16T09:14:13.244Z,92.39
2022-12-16T09:16:58.638Z,92.31
2022-12-16T09:19:44.121Z,92.28
2022-12-16T09:22:31.045Z,92.31
2022-12-16T09:25:16.262Z,91.96
2022-12-16T09:28:01.714Z,91.76
2022-12-16T09:30:47.047Z,91.95
2022-12-16T09:33:32.796Z,91.73
2022-12-16T09:36:18.206Z,91.87
2022-12-16T09:39:04.764Z,91.93
2022-12-16T09:42:00.283Z,91.57
2022-12-16T09:45:01.371Z,91.31
2022-12-16T09:47:55.047Z,91.14
2022-12-16T09:50:43.711Z,91.11
2022-12-16T09:53:31.948Z,90.74
2022-12-16T09:56:23.733Z,91.17
2022-12-16T09:59:15.728Z,90.70
2022-12-16T10:02:02.092Z,90.60
2022-12-16T10:04:47.805Z,90.76
2022-12-16T10:07:36.663Z,91.19
2022-12-16T10:10:35.569Z,91.17
2022-12-16T10:13:31.956Z,91.21
2022-12-16T10:16:26.762Z,91.16
2022-12-16T10:19:20.226Z,91.05
2022-12-16T10:22:12.139Z,90.77
2022-12-16T10:25:09.638Z,90.86
2022-12-16T10:28:02.045Z,90.39
2022-12-16T10:30:50.942Z,90.38
2022-12-16T10:33:38.625Z,90.58
2022-12-16T10:36:30.561Z,90.27
2022-12-16T10:39:20.018Z,89.82
2022-12-16T10:42:11.012Z,89.77
2022-12-16T10:45:11.071Z,90.50
2022-12-16T10:47:57.661Z,90.53
2022-12-16T10:50:42.953Z,90.42
2022-12-16T10:53:33.767Z,90.67
2022-12-16T10:56:32.886Z,90.88
2022-12-16T10:59:23.574Z,91.13
2022-12-16T11:02:16.762Z,91.16
2022-12-16T11:05:04.351Z,91.27
2022-12-16T11:07:55.301Z,91.50
2022-12-16T11:10:46.867Z,91.87
2022-12-16T11:13:40.547Z,91.65
2022-12-16T11:16:29.793Z,91.76
2022-12-16T11:19:15.912Z,91.51
2022-12-16T11:22:03.047Z,92.13
2022-12-16T11:24:48.815Z,91.81
2022-12-16T11:27:46.450Z,91.61
2022-12-16T11:30:38.592Z,91.86
2022-12-16T11:33:31.223Z,92.07
2022-12-16T11:36:25.942Z,91.83
2022-12-16T11:39:13.072Z,91.67
2022-12-16T11:42:00.395Z,91.57
2022-12-16T11:44:51.872Z,91.05
2022-12-16T11:47:50.967Z,91.39
2022-12-16T11:50:39.349Z,91.03
2022-12-16T11:53:40.334Z,91.11
2022-12-16T11:56:33.662Z,91.01
2022-12-16T11:59:23.215Z,91.10
2022-12-16T12:02:15.192Z,91.21
2022-12-16T12:05:00.470Z,91.24
2022-12-16T12:07:52.383Z,91.71
2022-12-16T12:11:08.619Z,91.65
2022-12-16T12:14:18.012Z,91.48
2022-12-16T12:17:14.484Z,91.82
2022-12-16T12:20:10.467Z,91.82
2022-12-16T12:22:53.464Z,91.81
2022-12-16T12:25:46.666Z,91.92
2022-12-16T12:28:42.098Z,91.69
2022-12-16T12:31:38.936Z,91.75
2022-12-16T12:34:34.261Z,91.90
2022-12-16T12:37:27.059Z,91.57
2022-12-16T12:40:19.290Z,91.59
2022-12-16T12:43:09.219Z,91.68
2022-12-16T12:46:11.287Z,91.42
2022-12-16T12:49:06.500Z,91.48
2022-12-16T12:52:00.583Z,91.34
2022-12-16T12:54:55.177Z,91.43
2022-12-16T12:57:44.752Z,91.70
2022-12-16T13:00:35.760Z,91.44
2022-12-16T13:03:26.746Z,91.45
2022-12-16T13:06:14.471Z,91.43
2022-12-16T13:09:13.488Z,91.44
2022-12-16T13:12:45.916Z,90.96
2022-12-16T13:15:39.187Z,91.42
2022-12-16T13:18:49.404Z,91.10
2022-12-16T13:22:07.303Z,91.22
2022-12-16T13:25:02.757Z,91.57
2022-12-16T13:28:03.224Z,91.49
2022-12-16T13:30:53.024Z,91.53
2022-12-16T13:33:45.353Z,91.67
2022-12-16T13:36:33.683Z,91.54
2022-12-16T13:39:39.352Z,91.29
2022-12-16T13:42:24.798Z,91.12
2022-12-16T13:45:15.576Z,91.11
2022-12-16T13:48:20.176Z,91.33
2022-12-16T13:51:07.672Z,91.31
2022-12-16T13:53:58.587Z,90.78
2022-12-16T13:56:52.048Z,90.85
2022-12-16T13:59:40.105Z,91.17
2022-12-16T14:02:42.649Z,91.08
2022-12-16T14:05:36.905Z,90.76
2022-12-16T14:08:24.899Z,90.69
2022-12-16T14:11:16.877Z,90.54
2022-12-16T14:14:09.852Z,90.41
2022-12-16T14:17:04.905Z,91.14
2022-12-16T14:19:58.871Z,90.55
2022-12-16T14:23:04.598Z,90.60
2022-12-16T14:25:50.389Z,90.16
2022-12-16T14:28:44.593Z,90.24
2022-12-16T14:31:35.675Z,90.41
2022-12-16T14:34:22.398Z,90.30
2022-12-16T14:37:08.466Z,90.31
2022-12-16T14:39:58.048Z,90.33
2022-12-16T14:42:44.755Z,89.99
2022-12-16T14:45:43.419Z,90.14
2022-12-16T14:48:49.598Z,90.05
2022-12-16T14:51:42.706Z,90.06
2022-12-16T14:54:44.123Z,89.98
2022-12-16T14:57:33.404Z,90.22
2022-12-16T15:00:30.722Z,90.07
2022-12-16T15:03:19.669Z,90.15
2022-12-16T15:06:07.488Z,90.12
2022-12-16T15:08:56.904Z,90.37
2022-12-16T15:11:43.259Z,90.10
2022-12-16T15:14:33.435Z,90.18
2022-12-16T15:17:19.384Z,90.10
2022-12-16T15:20:08.323Z,90.02
2022-12-16T15:22:55.235Z,90.17
2022-12-16T15:25:42.592Z,90.07
2022-12-16T15:28:42.944Z,89.84
2022-12-16T15:31:33.316Z,90.25
2022-12-16T15:34:45.618Z,90.20
2022-12-16T15:37:37.149Z,89.99
2022-12-16T15:40:37.517Z,90.27
2022-12-16T15:43:34.641Z,90.70
2022-12-16T15:46:20.692Z,90.18
2022-12-16T15:49:09.693Z,90.18
2022-12-16T15:52:03.494Z,89.94
2022-12-16T15:54:49.324Z,89.89
2022-12-16T15:57:49.184Z,89.71
2022-12-16T16:00:41.719Z,89.68
2022-12-16T16:03:40.536Z,89.86
2022-12-16T16:06:34.948Z,89.67
2022-12-16T16:09:20.808Z,89.85
2022-12-16T16:12:06.036Z,89.74
2022-12-16T16:14:53.165Z,89.57
2022-12-16T16:17:40.577Z,89.38
2022-12-16T16:20:31.954Z,89.54
2022-12-16T16:23:18.311Z,89.48
2022-12-16T16:26:04.382Z,89.19
2022-12-16T16:28:49.852Z,89.72
2022-12-16T16:31:37.152Z,89.30
2022-12-16T16:34:23.127Z,89.35
2022-12-16T16:37:12.682Z,89.21
2022-12-16T16:39:58.936Z,89.48
2022-12-16T16:42:44.810Z,89.34
2022-12-16T16:45:30.683Z,89.66
2022-12-16T16:48:24.950Z,89.66
2022-12-16T16:51:14.349Z,89.52
2022-12-16T16:54:00.123Z,89.03
2022-12-16T16:56:47.548Z,88.75
2022-12-16T16:59:33.334Z,88.96
2022-12-16T17:02:19.311Z,88.78
2022-12-16T17:05:06.552Z,89.43
2022-12-16T17:07:53.907Z,89.38
2022-12-16T17:10:39.507Z,89.54
2022-12-16T17:13:24.836Z,89.44
2022-12-16T17:16:09.388Z,89.13
2022-12-16T17:18:54.796Z,89.18
2022-12-16T17:21:41.425Z,88.56
2022-12-16T17:24:26.855Z,89.03
2022-12-16T17:27:12.196Z,89.01
2022-12-16T17:29:57.461Z,88.92
2022-12-16T17:32:42.713Z,89.04
2022-12-16T17:35:29.797Z,89.02
2022-12-16T17:38:18.613Z,88.57
2022-12-16T17:41:10.086Z,88.56
2022-12-16T17:43:55.417Z,88.66
2022-12-16T17:46:50.860Z,88.71
2022-12-16T17:49:38.516Z,88.60
2022-12-16T17:52:23.804Z,88.47
2022-12-16T17:55:10.347Z,88.33
2022-12-16T17:57:55.745Z,88.35
2022-12-16T18:00:40.183Z,88.21
2022-12-16T18:03:25.952Z,88.31
2022-12-16T18:06:14.877Z,87.77
2022-12-16T18:08:56.711Z,88.47
2022-12-16T18:11:43.528Z,88.16
2022-12-16T18:14:28.823Z,88.08
2022-12-16T18:17:14.239Z,88.01
2022-12-16T18:19:59.587Z,87.91
2022-12-16T18:22:44.804Z,88.25
2022-12-16T18:25:30.225Z,87.93
2022-12-16T18:28:16.696Z,87.56
2022-12-16T18:31:02.087Z,87.80
2022-12-16T18:33:48.052Z,87.84
2022-12-16T18:36:33.183Z,87.89
2022-12-16T18:39:18.655Z,87.77
2022-12-16T18:42:05.343Z,87.71
2022-12-16T18:44:57.597Z,87.58
2022-12-16T18:47:46.341Z,87.41
2022-12-16T18:50:37.558Z,86.96
2022-12-16T18:53:24.254Z,86.83
2022-12-16T18:56:18.262Z,87.03
2022-12-16T18:59:03.451Z,86.78
2022-12-16T19:01:50.151Z,87.03
2022-12-16T19:04:35.834Z,87.10
2022-12-16T19:07:21.071Z,87.29
2022-12-16T19:10:06.405Z,87.33
2022-12-16T19:12:52.274Z,87.12
2022-12-16T19:15:41.227Z,87.16
2022-12-16T19:18:30.210Z,86.84
2022-12-16T19:21:15.907Z,86.95
2022-12-16T19:24:01.182Z,86.48
2022-12-16T19:26:45.704Z,86.82
2022-12-16T19:29:31.196Z,86.47
2022-12-16T19:32:16.516Z,86.19
2022-12-16T19:35:03.192Z,85.92
2022-12-16T19:37:48.404Z,86.21
2022-12-16T19:40:34.312Z,86.59
2022-12-16T19:43:19.734Z,86.45
2022-12-16T19:46:11.053Z,86.59
2022-12-16T19:48:56.446Z,86.01
2022-12-16T19:51:43.574Z,86.06
2022-12-16T19:54:28.719Z,86.21
2022-12-16T19:57:17.017Z,86.79
2022-12-16T20:00:02.398Z,86.54
2022-12-16T20:02:57.458Z,86.04
2022-12-16T20:05:43.155Z,86.00
2022-12-16T20:08:31.193Z,85.51
2022-12-16T20:11:16.514Z,86.05
2022-12-16T20:14:01.780Z,85.83
2022-12-16T20:16:47.105Z,86.36
2022-12-16T20:19:32.602Z,86.37
2022-12-16T20:22:17.799Z,86.18
2022-12-16T20:25:04.373Z,85.55
2022-12-16T20:27:49.710Z,85.87
2022-12-16T20:30:35.667Z,85.95
2022-12-16T20:33:21.047Z,85.73
2022-12-16T20:36:14.089Z,85.79
2022-12-16T20:38:59.326Z,85.59
2022-12-16T20:41:45.895Z,85.63
2022-12-16T20:44:31.755Z,85.44
2022-12-16T20:47:17.057Z,85.82
2022-12-16T20:50:03.011Z,85.53
2022-12-16T20:52:51.460Z,85.62
2022-12-16T20:55:37.302Z,85.38
2022-12-16T20:58:24.356Z,85.29
2022-12-16T21:01:10.692Z,85.16
2022-12-16T21:03:57.136Z,85.15
2022-12-16T21:06:42.433Z,84.61
2022-12-16T21:09:28.211Z,85.34
2022-12-16T21:12:13.456Z,85.37
2022-12-16T21:15:00.317Z,85.33
2022-12-16T21:17:45.508Z,85.06
2022-12-16T21:20:31.109Z,85.65
2022-12-16T21:23:18.561Z,85.14
2022-12-16T21:26:03.864Z,84.75
2022-12-16T21:28:49.159Z,85.36
2022-12-16T21:31:35.950Z,85.02
2022-12-16T21:34:21.332Z,84.92
2022-12-16T21:37:08.237Z,84.68
2022-12-16T21:39:54.554Z,84.88
2022-12-16T21:42:44.039Z,84.58
2022-12-16T21:45:44.782Z,84.38
2022-12-16T21:48:31.163Z,84.31
2022-12-16T21:51:31.248Z,83.70
2022-12-16T21:54:16.708Z,83.39
2022-12-16T21:57:02.170Z,83.47
2022-12-16T21:59:47.896Z,83.09
2022-12-16T22:02:32.305Z,82.71
2022-12-16T22:05:19.207Z,82.53
2022-12-16T22:08:04.963Z,81.58
2022-12-16T22:10:50.394Z,81.60
2022-12-16T22:13:36.612Z,82.22
2022-12-16T22:16:22.787Z,82.84
2022-12-16T22:19:08.203Z,82.53
2022-12-16T22:21:54.814Z,82.85
2022-12-16T22:24:41.505Z,81.81
2022-12-16T22:27:26.714Z,81.97
2022-12-16T22:30:11.876Z,81.77
2022-12-16T22:32:57.312Z,82.01
2022-12-16T22:35:42.802Z,82.10
2022-12-16T22:38:29.333Z,82.42
2022-12-16T22:41:15.238Z,83.34
2022-12-16T22:44:00.978Z,82.38
2022-12-16T22:46:46.844Z,83.21
2022-12-16T22:49:32.735Z,83.15
2022-12-16T22:52:18.467Z,83.69
2022-12-16T22:55:05.102Z,84.13
2022-12-16T22:57:50.970Z,84.17
2022-12-16T23:00:39.090Z,83.96
2022-12-16T23:03:24.446Z,84.41
2022-12-16T23:06:09.669Z,84.61
2022-12-16T23:08:55.000Z,84.62
2022-12-16T23:11:50.657Z,84.93
2022-12-16T23:14:42.583Z,84.80
2022-12-16T23:17:28.792Z,85.62
2022-12-16T23:20:14.063Z,85.59
2022-12-16T23:22:59.222Z,85.34
2022-12-16T23:25:45.152Z,84.61
2022-12-16T23:28:31.619Z,84.00
2022-12-16T23:31:17.073Z,84.61
2022-12-16T23:34:02.761Z,82.54
2022-12-16T23:36:47.956Z,81.86
2022-12-16T23:39:33.365Z,82.59
2022-12-16T23:42:18.511Z,83.55
2022-12-16T23:45:05.229Z,84.30
2022-12-16T23:47:50.491Z,84.15
2022-12-16T23:50:36.386Z,84.55
2022-12-16T23:53:22.780Z,84.74
2022-12-16T23:56:07.931Z,84.38
2022-12-16T23:59:01.487Z,84.74
